sensor_id;sensor_type;location;lat;lon;timestamp;P1;durP1;ratioP1;P2;durP2;ratioP2
68858;SDS011;55864;49.238;8.092;2023-05-02T00:01:12;4.95;;;2.40;;
68858;SDS011;55864;49.238;8.092;2023-05-02T00:03:13;6.00;;;2.67;;
68858;SDS011;55864;49.238;8.092;2023-05-02T00:05:13;5.03;;;2.42;;
68858;SDS011;55864;49.238;8.092;2023-05-02T00:07:14;4.75;;;2.35;;
68858;SDS011;55864;49.238;8.092;2023-05-02T00:09:15;4.85;;;2.50;;
68858;SDS011;55864;49.238;8.092;2023-05-02T00:11:15;6.25;;;2.50;;
68858;SDS011;55864;49.238;8.092;2023-05-02T00:13:16;6.18;;;2.40;;
68858;SDS011;55864;49.238;8.092;2023-05-02T00:15:16;5.35;;;2.25;;
68858;SDS011;55864;49.238;8.092;2023-05-02T00:17:19;5.80;;;2.60;;
68858;SDS011;55864;49.238;8.092;2023-05-02T00:19:19;4.75;;;2.30;;
68858;SDS011;55864;49.238;8.092;2023-05-02T00:21:20;4.90;;;2.42;;
68858;SDS011;55864;49.238;8.092;2023-05-02T00:23:20;5.03;;;2.55;;
68858;SDS011;55864;49.238;8.092;2023-05-02T00:25:21;4.93;;;2.55;;
68858;SDS011;55864;49.238;8.092;2023-05-02T00:27:22;5.35;;;2.47;;
68858;SDS011;55864;49.238;8.092;2023-05-02T00:29:22;5.55;;;2.42;;
68858;SDS011;55864;49.238;8.092;2023-05-02T00:31:23;6.00;;;2.22;;
68858;SDS011;55864;49.238;8.092;2023-05-02T00:33:25;5.00;;;2.47;;
68858;SDS011;55864;49.238;8.092;2023-05-02T00:35:25;4.72;;;2.15;;
68858;SDS011;55864;49.238;8.092;2023-05-02T00:37:26;4.75;;;2.17;;
68858;SDS011;55864;49.238;8.092;2023-05-02T00:39:26;4.55;;;2.47;;
68858;SDS011;55864;49.238;8.092;2023-05-02T00:41:27;5.70;;;2.40;;
68858;SDS011;55864;49.238;8.092;2023-05-02T00:43:29;5.97;;;2.60;;
68858;SDS011;55864;49.238;8.092;2023-05-02T00:45:29;5.35;;;2.22;;
68858;SDS011;55864;49.238;8.092;2023-05-02T00:47:30;4.68;;;2.40;;
68858;SDS011;55864;49.238;8.092;2023-05-02T00:49:32;5.05;;;2.78;;
68858;SDS011;55864;49.238;8.092;2023-05-02T00:51:32;5.65;;;2.80;;
68858;SDS011;55864;49.238;8.092;2023-05-02T00:53:34;4.95;;;2.53;;
68858;SDS011;55864;49.238;8.092;2023-05-02T00:55:36;5.63;;;2.50;;
68858;SDS011;55864;49.238;8.092;2023-05-02T00:57:37;5.13;;;2.67;;
68858;SDS011;55864;49.238;8.092;2023-05-02T00:59:39;5.35;;;2.67;;
68858;SDS011;55864;49.238;8.092;2023-05-02T01:01:44;6.05;;;2.92;;
68858;SDS011;55864;49.238;8.092;2023-05-02T01:03:54;5.25;;;2.70;;
68858;SDS011;55864;49.238;8.092;2023-05-02T01:06:07;4.85;;;2.47;;
68858;SDS011;55864;49.238;8.092;2023-05-02T01:08:17;6.07;;;2.83;;
68858;SDS011;55864;49.238;8.092;2023-05-02T01:10:27;5.90;;;3.10;;
68858;SDS011;55864;49.238;8.092;2023-05-02T01:12:35;5.10;;;2.67;;
68858;SDS011;55864;49.238;8.092;2023-05-02T01:14:41;6.78;;;3.05;;
68858;SDS011;55864;49.238;8.092;2023-05-02T01:16:46;6.75;;;2.75;;
68858;SDS011;55864;49.238;8.092;2023-05-02T01:18:49;7.55;;;2.70;;
68858;SDS011;55864;49.238;8.092;2023-05-02T01:20:52;6.15;;;2.80;;
68858;SDS011;55864;49.238;8.092;2023-05-02T01:22:59;5.70;;;2.90;;
68858;SDS011;55864;49.238;8.092;2023-05-02T01:25:07;5.60;;;2.70;;
68858;SDS011;55864;49.238;8.092;2023-05-02T01:27:21;6.43;;;2.80;;
68858;SDS011;55864;49.238;8.092;2023-05-02T01:29:28;5.90;;;2.90;;
68858;SDS011;55864;49.238;8.092;2023-05-02T01:31:30;6.97;;;2.97;;
68858;SDS011;55864;49.238;8.092;2023-05-02T01:33:34;6.05;;;3.08;;
68858;SDS011;55864;49.238;8.092;2023-05-02T01:35:37;8.85;;;3.30;;
68858;SDS011;55864;49.238;8.092;2023-05-02T01:37:38;6.32;;;3.75;;
68858;SDS011;55864;49.238;8.092;2023-05-02T01:39:42;6.32;;;3.35;;
68858;SDS011;55864;49.238;8.092;2023-05-02T01:41:44;8.43;;;3.70;;
68858;SDS011;55864;49.238;8.092;2023-05-02T01:43:47;7.75;;;4.20;;
68858;SDS011;55864;49.238;8.092;2023-05-02T01:45:50;9.20;;;4.60;;
68858;SDS011;55864;49.238;8.092;2023-05-02T01:47:53;8.00;;;4.50;;
68858;SDS011;55864;49.238;8.092;2023-05-02T01:49:54;7.32;;;4.18;;
68858;SDS011;55864;49.238;8.092;2023-05-02T01:51:56;7.55;;;4.47;;
68858;SDS011;55864;49.238;8.092;2023-05-02T01:54:02;7.65;;;4.60;;
68858;SDS011;55864;49.238;8.092;2023-05-02T01:56:05;8.38;;;4.63;;
68858;SDS011;55864;49.238;8.092;2023-05-02T01:58:06;8.32;;;4.65;;
68858;SDS011;55864;49.238;8.092;2023-05-02T02:00:07;8.30;;;4.70;;
68858;SDS011;55864;49.238;8.092;2023-05-02T02:02:17;9.10;;;5.00;;
68858;SDS011;55864;49.238;8.092;2023-05-02T02:04:18;9.07;;;5.20;;
68858;SDS011;55864;49.238;8.092;2023-05-02T02:06:20;8.50;;;5.28;;
68858;SDS011;55864;49.238;8.092;2023-05-02T02:08:21;9.75;;;5.35;;
68858;SDS011;55864;49.238;8.092;2023-05-02T02:10:22;7.78;;;4.28;;
68858;SDS011;55864;49.238;8.092;2023-05-02T02:12:26;7.13;;;4.07;;
68858;SDS011;55864;49.238;8.092;2023-05-02T02:14:32;8.20;;;4.18;;
68858;SDS011;55864;49.238;8.092;2023-05-02T02:16:35;7.28;;;3.65;;
68858;SDS011;55864;49.238;8.092;2023-05-02T02:18:39;6.45;;;3.75;;
68858;SDS011;55864;49.238;8.092;2023-05-02T02:20:44;7.88;;;4.22;;
68858;SDS011;55864;49.238;8.092;2023-05-02T02:22:49;7.97;;;4.25;;
68858;SDS011;55864;49.238;8.092;2023-05-02T02:24:51;8.25;;;5.03;;
68858;SDS011;55864;49.238;8.092;2023-05-02T02:26:53;9.52;;;5.90;;
68858;SDS011;55864;49.238;8.092;2023-05-02T02:28:54;9.68;;;6.05;;
68858;SDS011;55864;49.238;8.092;2023-05-02T02:30:55;11.18;;;6.85;;
68858;SDS011;55864;49.238;8.092;2023-05-02T02:32:56;11.13;;;7.15;;
68858;SDS011;55864;49.238;8.092;2023-05-02T02:34:58;11.13;;;6.97;;
68858;SDS011;55864;49.238;8.092;2023-05-02T02:36:59;11.98;;;7.20;;
68858;SDS011;55864;49.238;8.092;2023-05-02T02:39:08;13.13;;;7.88;;
68858;SDS011;55864;49.238;8.092;2023-05-02T02:41:17;13.50;;;7.97;;
68858;SDS011;55864;49.238;8.092;2023-05-02T02:43:23;14.00;;;8.23;;
68858;SDS011;55864;49.238;8.092;2023-05-02T02:45:33;16.45;;;8.95;;
68858;SDS011;55864;49.238;8.092;2023-05-02T02:47:40;14.20;;;9.38;;
68858;SDS011;55864;49.238;8.092;2023-05-02T02:49:45;15.45;;;9.40;;
68858;SDS011;55864;49.238;8.092;2023-05-02T02:51:52;14.00;;;8.48;;
68858;SDS011;55864;49.238;8.092;2023-05-02T02:53:59;16.13;;;9.45;;
68858;SDS011;55864;49.238;8.092;2023-05-02T02:56:05;13.38;;;8.15;;
68858;SDS011;55864;49.238;8.092;2023-05-02T02:58:19;11.98;;;7.38;;
68858;SDS011;55864;49.238;8.092;2023-05-02T03:00:29;11.95;;;7.20;;
68858;SDS011;55864;49.238;8.092;2023-05-02T03:02:31;11.15;;;6.30;;
68858;SDS011;55864;49.238;8.092;2023-05-02T03:04:37;11.55;;;6.63;;
68858;SDS011;55864;49.238;8.092;2023-05-02T03:06:39;10.73;;;6.55;;
68858;SDS011;55864;49.238;8.092;2023-05-02T03:08:42;11.38;;;6.80;;
68858;SDS011;55864;49.238;8.092;2023-05-02T03:10:48;11.65;;;7.53;;
68858;SDS011;55864;49.238;8.092;2023-05-02T03:12:49;12.65;;;7.47;;
68858;SDS011;55864;49.238;8.092;2023-05-02T03:14:50;11.57;;;7.53;;
68858;SDS011;55864;49.238;8.092;2023-05-02T03:16:51;12.20;;;7.85;;
68858;SDS011;55864;49.238;8.092;2023-05-02T03:18:51;13.27;;;8.23;;
68858;SDS011;55864;49.238;8.092;2023-05-02T03:20:52;13.40;;;8.45;;
68858;SDS011;55864;49.238;8.092;2023-05-02T03:22:53;14.98;;;8.38;;
68858;SDS011;55864;49.238;8.092;2023-05-02T03:24:55;14.63;;;8.55;;
68858;SDS011;55864;49.238;8.092;2023-05-02T03:26:56;14.13;;;9.23;;
68858;SDS011;55864;49.238;8.092;2023-05-02T03:29:00;15.68;;;9.38;;
68858;SDS011;55864;49.238;8.092;2023-05-02T03:31:07;15.00;;;10.23;;
68858;SDS011;55864;49.238;8.092;2023-05-02T03:33:11;17.20;;;11.15;;
68858;SDS011;55864;49.238;8.092;2023-05-02T03:35:15;18.45;;;11.52;;
68858;SDS011;55864;49.238;8.092;2023-05-02T03:37:18;20.80;;;11.52;;
68858;SDS011;55864;49.238;8.092;2023-05-02T03:39:18;21.63;;;11.63;;
68858;SDS011;55864;49.238;8.092;2023-05-02T03:41:20;20.45;;;13.30;;
68858;SDS011;55864;49.238;8.092;2023-05-02T03:43:27;19.17;;;12.30;;
68858;SDS011;55864;49.238;8.092;2023-05-02T03:45:28;19.05;;;12.68;;
68858;SDS011;55864;49.238;8.092;2023-05-02T03:47:29;22.08;;;13.52;;
68858;SDS011;55864;49.238;8.092;2023-05-02T03:49:29;23.98;;;14.50;;
68858;SDS011;55864;49.238;8.092;2023-05-02T03:51:33;23.20;;;13.38;;
68858;SDS011;55864;49.238;8.092;2023-05-02T03:53:33;20.48;;;13.60;;
68858;SDS011;55864;49.238;8.092;2023-05-02T03:55:37;22.55;;;13.60;;
68858;SDS011;55864;49.238;8.092;2023-05-02T03:57:40;23.52;;;14.45;;
68858;SDS011;55864;49.238;8.092;2023-05-02T03:59:42;22.75;;;13.63;;
68858;SDS011;55864;49.238;8.092;2023-05-02T04:01:51;22.33;;;14.60;;
68858;SDS011;55864;49.238;8.092;2023-05-02T04:03:55;23.10;;;14.35;;
68858;SDS011;55864;49.238;8.092;2023-05-02T04:05:58;23.60;;;15.13;;
68858;SDS011;55864;49.238;8.092;2023-05-02T04:07:59;25.40;;;15.57;;
68858;SDS011;55864;49.238;8.092;2023-05-02T04:10:00;26.25;;;14.52;;
68858;SDS011;55864;49.238;8.092;2023-05-02T04:12:02;24.33;;;15.07;;
68858;SDS011;55864;49.238;8.092;2023-05-02T04:14:06;26.90;;;15.68;;
68858;SDS011;55864;49.238;8.092;2023-05-02T04:16:07;19.15;;;11.32;;
68858;SDS011;55864;49.238;8.092;2023-05-02T04:18:09;21.52;;;11.15;;
68858;SDS011;55864;49.238;8.092;2023-05-02T04:20:11;17.65;;;10.57;;
68858;SDS011;55864;49.238;8.092;2023-05-02T04:22:16;22.00;;;11.27;;
68858;SDS011;55864;49.238;8.092;2023-05-02T04:24:21;15.63;;;9.13;;
68858;SDS011;55864;49.238;8.092;2023-05-02T04:26:24;18.73;;;11.17;;
68858;SDS011;55864;49.238;8.092;2023-05-02T04:28:30;17.48;;;11.40;;
68858;SDS011;55864;49.238;8.092;2023-05-02T04:30:33;18.85;;;11.55;;
68858;SDS011;55864;49.238;8.092;2023-05-02T04:32:40;23.00;;;14.27;;
68858;SDS011;55864;49.238;8.092;2023-05-02T04:34:42;26.85;;;16.17;;
68858;SDS011;55864;49.238;8.092;2023-05-02T04:36:44;22.02;;;15.05;;
68858;SDS011;55864;49.238;8.092;2023-05-02T04:38:46;27.90;;;16.95;;
68858;SDS011;55864;49.238;8.092;2023-05-02T04:40:49;28.20;;;17.63;;
68858;SDS011;55864;49.238;8.092;2023-05-02T04:42:50;29.20;;;17.33;;
68858;SDS011;55864;49.238;8.092;2023-05-02T04:44:54;29.15;;;18.33;;
68858;SDS011;55864;49.238;8.092;2023-05-02T04:46:56;32.05;;;19.33;;
68858;SDS011;55864;49.238;8.092;2023-05-02T04:48:57;30.38;;;17.63;;
68858;SDS011;55864;49.238;8.092;2023-05-02T04:50:57;32.90;;;19.92;;
68858;SDS011;55864;49.238;8.092;2023-05-02T04:52:58;28.50;;;18.38;;
68858;SDS011;55864;49.238;8.092;2023-05-02T04:54:59;32.38;;;18.90;;
68858;SDS011;55864;49.238;8.092;2023-05-02T04:57:00;25.30;;;15.50;;
68858;SDS011;55864;49.238;8.092;2023-05-02T04:59:01;21.98;;;12.88;;
68858;SDS011;55864;49.238;8.092;2023-05-02T05:01:01;21.05;;;13.07;;
68858;SDS011;55864;49.238;8.092;2023-05-02T05:03:03;19.75;;;12.57;;
68858;SDS011;55864;49.238;8.092;2023-05-02T05:05:04;19.33;;;12.32;;
68858;SDS011;55864;49.238;8.092;2023-05-02T05:07:05;23.75;;;12.48;;
68858;SDS011;55864;49.238;8.092;2023-05-02T05:09:06;22.17;;;13.18;;
68858;SDS011;55864;49.238;8.092;2023-05-02T05:11:08;23.88;;;13.63;;
68858;SDS011;55864;49.238;8.092;2023-05-02T05:13:09;23.50;;;14.40;;
68858;SDS011;55864;49.238;8.092;2023-05-02T05:15:10;25.67;;;16.80;;
68858;SDS011;55864;49.238;8.092;2023-05-02T05:17:11;26.02;;;16.13;;
68858;SDS011;55864;49.238;8.092;2023-05-02T05:19:13;28.05;;;17.02;;
68858;SDS011;55864;49.238;8.092;2023-05-02T05:21:13;30.10;;;17.33;;
68858;SDS011;55864;49.238;8.092;2023-05-02T05:23:14;26.23;;;16.30;;
68858;SDS011;55864;49.238;8.092;2023-05-02T05:25:15;31.10;;;18.63;;
68858;SDS011;55864;49.238;8.092;2023-05-02T05:27:17;30.38;;;17.00;;
68858;SDS011;55864;49.238;8.092;2023-05-02T05:29:17;27.38;;;17.05;;
68858;SDS011;55864;49.238;8.092;2023-05-02T05:31:18;30.20;;;18.15;;
68858;SDS011;55864;49.238;8.092;2023-05-02T05:33:22;28.70;;;16.70;;
68858;SDS011;55864;49.238;8.092;2023-05-02T05:35:25;30.08;;;17.60;;
68858;SDS011;55864;49.238;8.092;2023-05-02T05:37:26;30.42;;;18.45;;
68858;SDS011;55864;49.238;8.092;2023-05-02T05:39:27;30.23;;;17.73;;
68858;SDS011;55864;49.238;8.092;2023-05-02T05:41:29;33.38;;;19.15;;
68858;SDS011;55864;49.238;8.092;2023-05-02T05:43:35;33.13;;;18.63;;
68858;SDS011;55864;49.238;8.092;2023-05-02T05:45:36;33.17;;;19.00;;
68858;SDS011;55864;49.238;8.092;2023-05-02T05:47:38;33.00;;;18.48;;
68858;SDS011;55864;49.238;8.092;2023-05-02T05:49:39;34.10;;;19.67;;
68858;SDS011;55864;49.238;8.092;2023-05-02T05:51:44;30.77;;;18.15;;
68858;SDS011;55864;49.238;8.092;2023-05-02T05:53:45;34.75;;;20.02;;
68858;SDS011;55864;49.238;8.092;2023-05-02T05:55:47;38.45;;;20.73;;
68858;SDS011;55864;49.238;8.092;2023-05-02T05:57:47;35.25;;;19.88;;
68858;SDS011;55864;49.238;8.092;2023-05-02T05:59:48;34.67;;;20.50;;
68858;SDS011;55864;49.238;8.092;2023-05-02T06:01:50;37.08;;;21.42;;
68858;SDS011;55864;49.238;8.092;2023-05-02T06:03:53;35.53;;;21.05;;
68858;SDS011;55864;49.238;8.092;2023-05-02T06:05:54;36.58;;;20.60;;
68858;SDS011;55864;49.238;8.092;2023-05-02T06:07:56;35.65;;;20.42;;
68858;SDS011;55864;49.238;8.092;2023-05-02T06:09:56;36.25;;;20.40;;
68858;SDS011;55864;49.238;8.092;2023-05-02T06:11:57;35.17;;;20.60;;
68858;SDS011;55864;49.238;8.092;2023-05-02T06:13:58;33.72;;;19.73;;
68858;SDS011;55864;49.238;8.092;2023-05-02T06:15:59;38.80;;;22.00;;
68858;SDS011;55864;49.238;8.092;2023-05-02T06:18:00;43.53;;;22.55;;
68858;SDS011;55864;49.238;8.092;2023-05-02T06:20:00;43.10;;;21.92;;
68858;SDS011;55864;49.238;8.092;2023-05-02T06:22:01;37.30;;;21.45;;
68858;SDS011;55864;49.238;8.092;2023-05-02T06:24:03;40.60;;;21.67;;
68858;SDS011;55864;49.238;8.092;2023-05-02T06:26:04;39.22;;;22.33;;
68858;SDS011;55864;49.238;8.092;2023-05-02T06:28:05;39.63;;;21.92;;
68858;SDS011;55864;49.238;8.092;2023-05-02T06:30:06;38.70;;;22.98;;
68858;SDS011;55864;49.238;8.092;2023-05-02T06:32:07;41.33;;;22.92;;
68858;SDS011;55864;49.238;8.092;2023-05-02T06:34:07;40.22;;;21.95;;
68858;SDS011;55864;49.238;8.092;2023-05-02T06:36:08;40.05;;;22.33;;
68858;SDS011;55864;49.238;8.092;2023-05-02T06:38:08;38.58;;;21.45;;
68858;SDS011;55864;49.238;8.092;2023-05-02T06:40:11;42.78;;;23.50;;
68858;SDS011;55864;49.238;8.092;2023-05-02T06:42:12;41.92;;;22.88;;
68858;SDS011;55864;49.238;8.092;2023-05-02T06:44:12;42.15;;;22.08;;
68858;SDS011;55864;49.238;8.092;2023-05-02T06:46:13;37.78;;;22.48;;
68858;SDS011;55864;49.238;8.092;2023-05-02T06:48:14;42.42;;;22.27;;
68858;SDS011;55864;49.238;8.092;2023-05-02T06:50:15;39.45;;;22.50;;
68858;SDS011;55864;49.238;8.092;2023-05-02T06:52:15;39.97;;;22.77;;
68858;SDS011;55864;49.238;8.092;2023-05-02T06:54:16;37.63;;;21.60;;
68858;SDS011;55864;49.238;8.092;2023-05-02T06:56:18;36.75;;;20.98;;
68858;SDS011;55864;49.238;8.092;2023-05-02T06:58:18;40.10;;;21.90;;
68858;SDS011;55864;49.238;8.092;2023-05-02T07:00:19;40.60;;;22.95;;
68858;SDS011;55864;49.238;8.092;2023-05-02T07:02:20;38.08;;;22.17;;
68858;SDS011;55864;49.238;8.092;2023-05-02T07:04:21;40.08;;;21.48;;
68858;SDS011;55864;49.238;8.092;2023-05-02T07:06:22;36.45;;;21.73;;
68858;SDS011;55864;49.238;8.092;2023-05-02T07:08:23;37.42;;;21.35;;
68858;SDS011;55864;49.238;8.092;2023-05-02T07:10:23;40.90;;;22.00;;
68858;SDS011;55864;49.238;8.092;2023-05-02T07:12:25;39.58;;;21.42;;
68858;SDS011;55864;49.238;8.092;2023-05-02T07:14:26;40.10;;;21.95;;
68858;SDS011;55864;49.238;8.092;2023-05-02T07:16:27;36.05;;;20.88;;
68858;SDS011;55864;49.238;8.092;2023-05-02T07:18:27;38.53;;;21.33;;
68858;SDS011;55864;49.238;8.092;2023-05-02T07:20:28;39.47;;;21.55;;
68858;SDS011;55864;49.238;8.092;2023-05-02T07:22:28;39.38;;;22.40;;
68858;SDS011;55864;49.238;8.092;2023-05-02T07:24:29;43.13;;;22.83;;
68858;SDS011;55864;49.238;8.092;2023-05-02T07:26:35;38.85;;;21.33;;
68858;SDS011;55864;49.238;8.092;2023-05-02T07:28:44;37.42;;;20.88;;
68858;SDS011;55864;49.238;8.092;2023-05-02T07:30:45;37.15;;;21.23;;
68858;SDS011;55864;49.238;8.092;2023-05-02T07:32:45;39.22;;;22.15;;
68858;SDS011;55864;49.238;8.092;2023-05-02T07:34:49;39.83;;;21.38;;
68858;SDS011;55864;49.238;8.092;2023-05-02T07:36:49;35.88;;;20.33;;
68858;SDS011;55864;49.238;8.092;2023-05-02T07:38:50;39.10;;;21.63;;
68858;SDS011;55864;49.238;8.092;2023-05-02T07:40:50;38.03;;;20.42;;
68858;SDS011;55864;49.238;8.092;2023-05-02T07:42:51;38.13;;;21.02;;
68858;SDS011;55864;49.238;8.092;2023-05-02T07:44:53;36.95;;;19.65;;
68858;SDS011;55864;49.238;8.092;2023-05-02T07:46:54;30.52;;;18.25;;
68858;SDS011;55864;49.238;8.092;2023-05-02T07:48:54;31.85;;;17.95;;
68858;SDS011;55864;49.238;8.092;2023-05-02T07:50:55;28.65;;;16.88;;
68858;SDS011;55864;49.238;8.092;2023-05-02T07:52:55;28.13;;;15.48;;
68858;SDS011;55864;49.238;8.092;2023-05-02T07:54:56;29.13;;;15.82;;
68858;SDS011;55864;49.238;8.092;2023-05-02T07:56:57;26.48;;;15.82;;
68858;SDS011;55864;49.238;8.092;2023-05-02T07:58:57;28.75;;;17.42;;
68858;SDS011;55864;49.238;8.092;2023-05-02T08:00:59;29.48;;;16.60;;
68858;SDS011;55864;49.238;8.092;2023-05-02T08:03:00;27.08;;;14.80;;
68858;SDS011;55864;49.238;8.092;2023-05-02T08:05:00;30.35;;;16.63;;
68858;SDS011;55864;49.238;8.092;2023-05-02T08:07:01;27.17;;;15.50;;
68858;SDS011;55864;49.238;8.092;2023-05-02T08:09:01;28.45;;;16.08;;
68858;SDS011;55864;49.238;8.092;2023-05-02T08:11:02;29.85;;;16.20;;
68858;SDS011;55864;49.238;8.092;2023-05-02T08:13:03;25.60;;;15.43;;
68858;SDS011;55864;49.238;8.092;2023-05-02T08:15:03;23.98;;;14.25;;
68858;SDS011;55864;49.238;8.092;2023-05-02T08:17:06;25.60;;;15.00;;
68858;SDS011;55864;49.238;8.092;2023-05-02T08:19:06;27.02;;;15.38;;
68858;SDS011;55864;49.238;8.092;2023-05-02T08:21:07;23.27;;;13.82;;
68858;SDS011;55864;49.238;8.092;2023-05-02T08:23:08;27.10;;;14.32;;
68858;SDS011;55864;49.238;8.092;2023-05-02T08:25:08;22.35;;;13.27;;
68858;SDS011;55864;49.238;8.092;2023-05-02T08:27:09;23.98;;;12.77;;
68858;SDS011;55864;49.238;8.092;2023-05-02T08:29:09;23.70;;;13.57;;
68858;SDS011;55864;49.238;8.092;2023-05-02T08:31:10;22.23;;;13.27;;
68858;SDS011;55864;49.238;8.092;2023-05-02T08:33:12;22.27;;;13.27;;
68858;SDS011;55864;49.238;8.092;2023-05-02T08:35:12;24.73;;;12.90;;
68858;SDS011;55864;49.238;8.092;2023-05-02T08:37:13;20.90;;;13.20;;
68858;SDS011;55864;49.238;8.092;2023-05-02T08:39:14;22.48;;;13.52;;
68858;SDS011;55864;49.238;8.092;2023-05-02T08:41:15;18.73;;;11.18;;
68858;SDS011;55864;49.238;8.092;2023-05-02T08:43:16;20.10;;;11.50;;
68858;SDS011;55864;49.238;8.092;2023-05-02T08:45:25;17.48;;;10.48;;
68858;SDS011;55864;49.238;8.092;2023-05-02T08:47:35;21.40;;;12.13;;
68858;SDS011;55864;49.238;8.092;2023-05-02T08:49:39;20.77;;;12.68;;
68858;SDS011;55864;49.238;8.092;2023-05-02T08:51:41;21.33;;;12.35;;
68858;SDS011;55864;49.238;8.092;2023-05-02T08:53:44;22.67;;;12.90;;
68858;SDS011;55864;49.238;8.092;2023-05-02T08:55:44;19.95;;;12.10;;
68858;SDS011;55864;49.238;8.092;2023-05-02T08:57:47;18.92;;;11.77;;
68858;SDS011;55864;49.238;8.092;2023-05-02T08:59:49;20.23;;;12.35;;
68858;SDS011;55864;49.238;8.092;2023-05-02T09:01:55;19.92;;;11.57;;
68858;SDS011;55864;49.238;8.092;2023-05-02T09:03:59;20.65;;;11.68;;
68858;SDS011;55864;49.238;8.092;2023-05-02T09:06:05;23.27;;;13.00;;
68858;SDS011;55864;49.238;8.092;2023-05-02T09:08:07;22.13;;;12.73;;
68858;SDS011;55864;49.238;8.092;2023-05-02T09:10:08;24.63;;;13.23;;
68858;SDS011;55864;49.238;8.092;2023-05-02T09:12:09;22.52;;;12.88;;
68858;SDS011;55864;49.238;8.092;2023-05-02T09:14:12;22.67;;;13.52;;
68858;SDS011;55864;49.238;8.092;2023-05-02T09:16:14;21.58;;;13.55;;
68858;SDS011;55864;49.238;8.092;2023-05-02T09:18:18;23.00;;;13.70;;
68858;SDS011;55864;49.238;8.092;2023-05-02T09:20:19;22.02;;;13.20;;
68858;SDS011;55864;49.238;8.092;2023-05-02T09:22:22;22.45;;;13.25;;
68858;SDS011;55864;49.238;8.092;2023-05-02T09:24:23;21.65;;;12.82;;
68858;SDS011;55864;49.238;8.092;2023-05-02T09:26:24;20.65;;;13.07;;
68858;SDS011;55864;49.238;8.092;2023-05-02T09:28:36;20.42;;;12.80;;
68858;SDS011;55864;49.238;8.092;2023-05-02T09:30:38;18.95;;;11.10;;
68858;SDS011;55864;49.238;8.092;2023-05-02T09:32:47;19.13;;;10.43;;
68858;SDS011;55864;49.238;8.092;2023-05-02T09:35:03;18.08;;;10.65;;
68858;SDS011;55864;49.238;8.092;2023-05-02T09:37:04;19.42;;;10.10;;
68858;SDS011;55864;49.238;8.092;2023-05-02T09:39:08;16.45;;;10.75;;
68858;SDS011;55864;49.238;8.092;2023-05-02T09:41:10;19.08;;;10.70;;
68858;SDS011;55864;49.238;8.092;2023-05-02T09:43:13;16.85;;;9.48;;
68858;SDS011;55864;49.238;8.092;2023-05-02T09:45:20;15.48;;;10.20;;
68858;SDS011;55864;49.238;8.092;2023-05-02T09:47:23;17.13;;;10.85;;
68858;SDS011;55864;49.238;8.092;2023-05-02T09:49:40;19.15;;;11.48;;
68858;SDS011;55864;49.238;8.092;2023-05-02T09:51:41;15.70;;;10.15;;
68858;SDS011;55864;49.238;8.092;2023-05-02T09:53:42;17.80;;;10.35;;
68858;SDS011;55864;49.238;8.092;2023-05-02T09:55:45;21.35;;;13.48;;
68858;SDS011;55864;49.238;8.092;2023-05-02T09:57:45;22.67;;;13.80;;
68858;SDS011;55864;49.238;8.092;2023-05-02T09:59:52;22.55;;;12.88;;
68858;SDS011;55864;49.238;8.092;2023-05-02T10:01:54;22.25;;;12.82;;
68858;SDS011;55864;49.238;8.092;2023-05-02T10:03:55;21.35;;;11.73;;
68858;SDS011;55864;49.238;8.092;2023-05-02T10:05:56;19.85;;;11.15;;
68858;SDS011;55864;49.238;8.092;2023-05-02T10:07:57;18.77;;;11.13;;
68858;SDS011;55864;49.238;8.092;2023-05-02T10:09:58;17.73;;;10.93;;
68858;SDS011;55864;49.238;8.092;2023-05-02T10:12:02;18.25;;;11.55;;
68858;SDS011;55864;49.238;8.092;2023-05-02T10:14:03;19.95;;;11.00;;
68858;SDS011;55864;49.238;8.092;2023-05-02T10:16:04;17.70;;;10.25;;
68858;SDS011;55864;49.238;8.092;2023-05-02T10:18:07;16.40;;;9.35;;
68858;SDS011;55864;49.238;8.092;2023-05-02T10:20:13;16.23;;;9.55;;
68858;SDS011;55864;49.238;8.092;2023-05-02T10:22:17;16.80;;;9.90;;
68858;SDS011;55864;49.238;8.092;2023-05-02T10:24:18;16.30;;;9.70;;
68858;SDS011;55864;49.238;8.092;2023-05-02T10:26:21;19.60;;;10.43;;
68858;SDS011;55864;49.238;8.092;2023-05-02T10:28:28;22.25;;;12.20;;
68858;SDS011;55864;49.238;8.092;2023-05-02T10:30:29;19.10;;;10.35;;
68858;SDS011;55864;49.238;8.092;2023-05-02T10:32:31;21.73;;;11.43;;
68858;SDS011;55864;49.238;8.092;2023-05-02T10:34:32;20.17;;;10.98;;
68858;SDS011;55864;49.238;8.092;2023-05-02T10:36:34;20.65;;;11.43;;
68858;SDS011;55864;49.238;8.092;2023-05-02T10:38:35;20.05;;;10.30;;
68858;SDS011;55864;49.238;8.092;2023-05-02T10:40:37;17.77;;;10.23;;
68858;SDS011;55864;49.238;8.092;2023-05-02T10:42:39;16.50;;;9.80;;
68858;SDS011;55864;49.238;8.092;2023-05-02T10:44:44;13.35;;;7.78;;
68858;SDS011;55864;49.238;8.092;2023-05-02T10:46:46;12.75;;;7.18;;
68858;SDS011;55864;49.238;8.092;2023-05-02T10:48:56;11.90;;;7.00;;
68858;SDS011;55864;49.238;8.092;2023-05-02T10:50:59;13.20;;;7.25;;
68858;SDS011;55864;49.238;8.092;2023-05-02T10:53:00;12.90;;;7.70;;
68858;SDS011;55864;49.238;8.092;2023-05-02T10:55:21;13.40;;;7.30;;
68858;SDS011;55864;49.238;8.092;2023-05-02T10:57:23;14.18;;;8.25;;
68858;SDS011;55864;49.238;8.092;2023-05-02T10:59:26;16.10;;;7.68;;
68858;SDS011;55864;49.238;8.092;2023-05-02T11:01:33;15.45;;;8.77;;
68858;SDS011;55864;49.238;8.092;2023-05-02T11:03:54;16.88;;;10.00;;
68858;SDS011;55864;49.238;8.092;2023-05-02T11:06:05;14.13;;;8.00;;
68858;SDS011;55864;49.238;8.092;2023-05-02T11:10:30;13.10;;;6.93;;
68858;SDS011;55864;49.238;8.092;2023-05-02T11:12:44;15.18;;;7.95;;
68858;SDS011;55864;49.238;8.092;2023-05-02T11:14:45;12.10;;;7.13;;
68858;SDS011;55864;49.238;8.092;2023-05-02T11:17:07;12.10;;;6.82;;
68858;SDS011;55864;49.238;8.092;2023-05-02T11:19:08;13.70;;;7.10;;
68858;SDS011;55864;49.238;8.092;2023-05-02T11:21:23;13.07;;;7.07;;
68858;SDS011;55864;49.238;8.092;2023-05-02T11:23:25;14.75;;;6.97;;
68858;SDS011;55864;49.238;8.092;2023-05-02T11:25:32;11.60;;;6.45;;
68858;SDS011;55864;49.238;8.092;2023-05-02T11:27:37;13.10;;;5.80;;
68858;SDS011;55864;49.238;8.092;2023-05-02T11:31:53;13.35;;;6.20;;
68858;SDS011;55864;49.238;8.092;2023-05-02T11:33:56;11.57;;;6.03;;
68858;SDS011;55864;49.238;8.092;2023-05-02T11:35:57;13.00;;;6.20;;
68858;SDS011;55864;49.238;8.092;2023-05-02T11:37:58;12.63;;;5.65;;
68858;SDS011;55864;49.238;8.092;2023-05-02T11:40:09;12.38;;;5.90;;
68858;SDS011;55864;49.238;8.092;2023-05-02T11:42:10;11.20;;;5.43;;
68858;SDS011;55864;49.238;8.092;2023-05-02T11:44:26;11.02;;;5.18;;
68858;SDS011;55864;49.238;8.092;2023-05-02T11:46:27;11.88;;;5.28;;
68858;SDS011;55864;49.238;8.092;2023-05-02T11:48:28;11.98;;;6.03;;
68858;SDS011;55864;49.238;8.092;2023-05-02T11:50:31;11.32;;;5.93;;
68858;SDS011;55864;49.238;8.092;2023-05-02T11:52:35;10.15;;;5.45;;
68858;SDS011;55864;49.238;8.092;2023-05-02T11:54:36;11.38;;;5.70;;
68858;SDS011;55864;49.238;8.092;2023-05-02T11:56:36;11.23;;;5.53;;
68858;SDS011;55864;49.238;8.092;2023-05-02T11:58:37;10.10;;;5.50;;
68858;SDS011;55864;49.238;8.092;2023-05-02T12:00:38;11.65;;;5.43;;
68858;SDS011;55864;49.238;8.092;2023-05-02T12:02:38;10.73;;;5.18;;
68858;SDS011;55864;49.238;8.092;2023-05-02T12:04:43;9.15;;;5.13;;
68858;SDS011;55864;49.238;8.092;2023-05-02T12:06:54;9.63;;;5.30;;
68858;SDS011;55864;49.238;8.092;2023-05-02T12:09:04;10.27;;;5.32;;
68858;SDS011;55864;49.238;8.092;2023-05-02T12:11:06;10.07;;;5.57;;